Time;durP1;ratioP1;P1;durP2;ratioP2;P2;SDS_P1;SDS_P2;PMS_P1;PMS_P2;Temp;Humidity;BMP_temperature;BMP_pressure;BME280_temperature;BME280_humidity;BME280_pressure;Samples;Min_cycle;Max_cycle;Signal;HPM_P1;HPM_P2
2022/07/11 00:01:08;;;;;;;2.37;0.90;;;;;;;12.31;95.60;101581.63;6014658;28;20070;-63
2022/07/11 00:04:03;;;;;;;1.13;0.87;;;;;;;12.20;96.06;101573.75;6024314;28;20046;-62
2022/07/11 00:07:00;;;;;;;3.13;1.00;;;;;;;12.20;96.08;101584.38;6024009;28;20069;-64
2022/07/11 00:09:55;;;;;;;2.30;0.90;;;;;;;12.10;96.55;101578.16;6026545;28;20030;-63
2022/07/11 00:12:51;;;;;;;2.90;1.27;;;;;;;12.23;96.43;101581.47;6014943;28;20101;-65
2022/07/11 00:15:46;;;;;;;1.37;0.83;;;;;;;12.28;96.76;101592.53;6024586;28;20109;-64
2022/07/11 00:18:42;;;;;;;1.37;0.90;;;;;;;12.20;96.64;101573.75;6010932;28;20274;-63
2022/07/11 00:21:37;;;;;;;1.85;0.80;;;;;;;12.25;96.51;101577.69;6020048;28;20414;-62
2022/07/11 00:24:32;;;;;;;1.90;1.20;;;;;;;12.39;96.25;101579.13;6017526;28;20121;-65
2022/07/11 00:27:28;;;;;;;1.30;0.70;;;;;;;12.40;96.42;101578.13;6027198;28;20034;-63
2022/07/11 00:30:23;;;;;;;2.33;0.90;;;;;;;12.48;95.98;101567.63;6022508;28;20082;-64
2022/07/11 00:33:18;;;;;;;1.43;0.87;;;;;;;12.55;96.14;101569.59;6025472;28;20037;-63
2022/07/11 00:36:14;;;;;;;1.27;0.90;;;;;;;12.61;95.89;101573.53;6026653;28;20065;-64
2022/07/11 00:39:09;;;;;;;2.63;0.90;;;;;;;12.68;96.02;101582.66;6022265;28;20435;-63
2022/07/11 00:42:05;;;;;;;2.10;0.90;;;;;;;12.67;95.51;101562.34;6027303;28;20043;-66
2022/07/11 00:45:00;;;;;;;3.35;1.30;;;;;;;12.67;94.91;101566.81;6028016;28;20601;-65
2022/07/11 00:47:56;;;;;;;1.83;1.00;;;;;;;12.54;95.19;101562.63;6020113;28;20045;-66
2022/07/11 00:50:52;;;;;;;2.17;0.90;;;;;;;12.62;95.65;101569.91;6011066;28;20066;-65
2022/07/11 00:53:49;;;;;;;2.20;1.10;;;;;;;12.77;95.72;101568.53;6016882;28;20394;-63
2022/07/11 00:56:44;;;;;;;1.73;1.10;;;;;;;12.71;95.57;101561.09;6022187;28;20617;-64
2022/07/11 00:59:40;;;;;;;2.07;1.10;;;;;;;12.57;95.31;101561.50;6020246;28;20031;-66
2022/07/11 01:02:35;;;;;;;1.97;0.90;;;;;;;12.64;95.33;101564.47;6026338;28;20023;-65
2022/07/11 01:05:31;;;;;;;1.37;1.00;;;;;;;12.49;95.95;101556.03;6026175;28;20034;-63
2022/07/11 01:08:31;;;;;;;4.13;1.15;;;;;;;12.50;96.00;101557.72;6013800;28;20089;-62
2022/07/11 01:11:26;;;;;;;2.15;0.93;;;;;;;12.41;96.06;101558.53;6024465;28;20255;-62
2022/07/11 01:14:21;;;;;;;1.58;0.90;;;;;;;12.55;96.87;101558.97;6020173;28;20038;-63
2022/07/11 01:17:17;;;;;;;1.63;0.90;;;;;;;12.52;96.21;101550.44;6013446;28;20478;-63
2022/07/11 01:20:12;;;;;;;2.97;0.80;;;;;;;12.55;96.46;101553.63;6026019;28;20038;-63
2022/07/11 01:23:07;;;;;;;3.90;0.90;;;;;;;12.60;96.10;101558.56;6027954;28;20049;-65
2022/07/11 01:26:03;;;;;;;1.70;0.80;;;;;;;12.69;96.23;101560.38;6015985;28;20042;-63
2022/07/11 01:29:09;;;;;;;3.78;0.80;;;;;;;12.82;95.98;101555.66;6022886;28;20062;-62
2022/07/11 01:32:05;;;;;;;2.80;0.80;;;;;;;12.89;96.34;101553.25;6025209;28;20038;-64
2022/07/11 01:35:01;;;;;;;1.75;0.80;;;;;;;12.91;95.88;101544.13;6024763;28;20030;-64
2022/07/11 01:37:56;;;;;;;2.97;1.10;;;;;;;12.88;95.12;101533.78;6022023;28;20046;-62
2022/07/11 01:40:51;;;;;;;1.93;0.80;;;;;;;12.90;95.35;101541.63;6025873;28;20389;-64
2022/07/11 01:43:47;;;;;;;2.90;1.05;;;;;;;12.82;95.73;101554.81;6021916;28;20038;-63
2022/07/11 01:46:42;;;;;;;3.47;1.10;;;;;;;12.79;96.13;101553.25;6027269;28;20493;-62
2022/07/11 01:49:38;;;;;;;1.60;1.08;;;;;;;12.70;96.37;101548.75;6018686;28;20034;-62
2022/07/11 01:52:33;;;;;;;1.60;1.00;;;;;;;12.62;96.13;101537.97;6021177;28;20471;-64
2022/07/11 01:55:28;;;;;;;2.42;1.10;;;;;;;12.67;96.90;101541.06;6009286;28;20092;-65
2022/07/11 01:58:24;;;;;;;3.77;1.13;;;;;;;12.60;97.01;101544.41;6016587;28;20037;-63
2022/07/11 02:01:19;;;;;;;5.23;1.10;;;;;;;12.68;96.89;101541.91;6024893;28;20281;-63
2022/07/11 02:04:14;;;;;;;3.53;1.30;;;;;;;12.74;97.28;101546.69;6015377;28;20030;-63
2022/07/11 02:07:11;;;;;;;3.53;1.53;;;;;;;12.81;97.34;101538.00;6024890;28;20289;-63
2022/07/11 02:10:07;;;;;;;2.13;1.20;;;;;;;12.79;97.15;101539.94;6013566;28;20035;-64
2022/07/11 02:13:02;;;;;;;2.10;1.10;;;;;;;12.96;96.81;101547.22;6023643;28;20038;-65
2022/07/11 02:15:58;;;;;;;2.47;0.98;;;;;;;12.90;96.43;101553.13;6018153;28;20035;-64
2022/07/11 02:18:53;;;;;;;2.90;1.20;;;;;;;12.99;96.27;101549.59;6012403;28;20057;-66
2022/07/11 02:21:48;;;;;;;3.43;1.10;;;;;;;12.98;96.30;101542.63;6014852;28;20041;-66
2022/07/11 02:24:44;;;;;;;3.28;1.25;;;;;;;12.98;96.08;101545.28;6023639;28;20038;-64
2022/07/11 02:27:39;;;;;;;3.07;1.00;;;;;;;12.96;96.90;101533.91;6015555;28;20050;-65
2022/07/11 02:30:35;;;;;;;2.93;1.20;;;;;;;12.89;96.39;101535.47;6015760;28;20063;-65
2022/07/11 02:33:30;;;;;;;2.08;1.05;;;;;;;12.81;96.64;101527.34;6023066;28;20492;-65
2022/07/11 02:36:26;;;;;;;3.50;1.33;;;;;;;12.90;96.83;101531.84;6015116;28;20032;-65
2022/07/11 02:39:21;;;;;;;3.93;1.40;;;;;;;12.93;96.98;101534.22;6024259;28;20050;-65
2022/07/11 02:42:18;;;;;;;5.03;1.10;;;;;;;13.02;97.01;101548.47;6012943;28;20030;-65
2022/07/11 02:45:13;;;;;;;2.47;1.15;;;;;;;13.05;96.50;101546.38;6025441;28;20285;-65
2022/07/11 02:48:08;;;;;;;2.13;1.00;;;;;;;13.04;96.95;101538.53;6015449;28;20447;-65
2022/07/11 02:51:04;;;;;;;2.60;1.30;;;;;;;13.11;96.17;101543.19;6023280;28;20043;-65
2022/07/11 02:53:59;;;;;;;3.38;1.35;;;;;;;13.05;96.08;101549.03;6015767;28;20030;-65
2022/07/11 02:56:54;;;;;;;4.13;1.20;;;;;;;13.06;96.23;101560.53;6017018;28;20038;-64
2022/07/11 02:59:50;;;;;;;3.47;1.37;;;;;;;13.11;96.88;101561.00;6023373;28;20069;-64
2022/07/11 03:02:45;;;;;;;3.20;1.30;;;;;;;13.13;96.23;101554.53;6015409;28;20514;-67
2022/07/11 03:05:41;;;;;;;2.08;1.23;;;;;;;13.30;96.45;101552.13;6020627;28;20033;-63
2022/07/11 03:08:36;;;;;;;3.40;1.10;;;;;;;13.17;96.18;101555.09;6013156;28;20038;-63
2022/07/11 03:11:31;;;;;;;3.17;1.50;;;;;;;13.10;95.88;101559.28;6013779;28;20038;-63
2022/07/11 03:14:27;;;;;;;2.10;1.40;;;;;;;13.19;96.50;101563.78;6015022;28;20050;-63
2022/07/11 03:17:23;;;;;;;3.75;1.80;;;;;;;13.15;96.98;101559.75;6020923;28;20038;-63
2022/07/11 03:20:18;;;;;;;6.38;1.70;;;;;;;13.16;97.25;101563.22;6024781;28;20839;-65
2022/07/11 03:23:13;;;;;;;3.90;1.83;;;;;;;13.15;97.18;101558.88;6018059;28;20104;-67
2022/07/11 03:26:08;;;;;;;2.53;1.50;;;;;;;13.12;97.53;101562.69;6014710;28;20537;-63
2022/07/11 03:29:04;;;;;;;6.33;1.47;;;;;;;13.10;97.73;101560.13;6023956;28;20027;-63
2022/07/11 03:32:00;;;;;;;4.15;1.50;;;;;;;13.19;97.51;101568.25;6019625;28;20045;-64
2022/07/11 03:38:10;;;;;;;3.78;2.20;;;;;;;13.05;97.16;101557.03;6028289;28;20034;-62
2022/07/11 03:41:05;;;;;;;5.70;2.30;;;;;;;13.01;97.79;101555.66;6023761;28;20462;-62
2022/07/11 03:44:01;;;;;;;4.67;1.87;;;;;;;13.05;97.36;101559.69;6022206;28;20043;-64
2022/07/11 03:46:56;;;;;;;4.33;2.03;;;;;;;12.97;97.90;101554.22;6030565;28;20037;-63
2022/07/11 03:49:51;;;;;;;5.20;1.80;;;;;;;12.97;98.15;101564.88;6012436;28;20039;-63
2022/07/11 03:52:47;;;;;;;4.83;2.03;;;;;;;12.85;98.20;101547.38;6018909;28;20266;-64
2022/07/11 03:55:42;;;;;;;3.33;2.10;;;;;;;12.95;98.63;101550.88;6028986;28;20520;-63
2022/07/11 03:58:37;;;;;;;6.25;2.15;;;;;;;13.11;99.03;101559.16;6027342;28;20119;-65
2022/07/11 04:01:33;;;;;;;3.80;2.00;;;;;;;13.13;98.13;101550.22;6027710;28;20046;-64
2022/07/11 04:04:28;;;;;;;5.30;2.30;;;;;;;13.26;97.90;101558.75;6024704;28;20039;-63
2022/07/11 04:07:23;;;;;;;4.47;2.00;;;;;;;13.17;97.55;101547.09;6022627;28;20121;-64
2022/07/11 04:10:18;;;;;;;6.17;2.50;;;;;;;13.18;97.14;101546.09;6020125;28;20034;-65
2022/07/11 04:13:14;;;;;;;5.57;2.50;;;;;;;13.20;97.45;101556.63;6018106;28;20105;-63
2022/07/11 04:16:09;;;;;;;5.70;1.97;;;;;;;13.23;97.53;101551.03;6016503;28;20277;-64
2022/07/11 04:19:04;;;;;;;4.50;1.97;;;;;;;13.29;97.62;101547.81;6026563;28;20671;-63
2022/07/11 04:22:00;;;;;;;5.10;2.63;;;;;;;13.40;97.66;101552.97;6028084;28;20105;-64
2022/07/11 04:24:55;;;;;;;5.10;2.37;;;;;;;13.52;97.08;101549.13;6024477;28;20027;-64
2022/07/11 04:27:50;;;;;;;4.43;2.30;;;;;;;13.93;96.46;101554.03;6020511;28;20037;-63
2022/07/11 04:30:46;;;;;;;7.40;2.10;;;;;;;14.35;93.59;101557.06;6017411;28;20301;-63
2022/07/11 04:33:41;;;;;;;4.33;2.10;;;;;;;14.20;92.86;101559.38;6023592;28;20037;-63
2022/07/11 04:36:36;;;;;;;4.00;2.30;;;;;;;13.98;92.84;101557.09;6017789;28;20281;-63
2022/07/11 04:39:34;;;;;;;9.37;2.70;;;;;;;14.13;93.63;101560.94;6027925;28;20109;-64
2022/07/11 04:42:30;;;;;;;5.10;2.20;;;;;;;14.11;93.15;101557.59;6028341;28;20270;-63
2022/07/11 04:45:25;;;;;;;5.10;2.10;;;;;;;14.19;93.03;101571.03;6028063;28;20039;-63
2022/07/11 04:48:20;;;;;;;5.20;2.40;;;;;;;14.28;92.93;101562.16;6021689;28;20031;-63
2022/07/11 04:51:17;;;;;;;5.87;2.20;;;;;;;14.30;92.37;101552.16;6020143;28;20042;-63
2022/07/11 04:54:12;;;;;;;5.75;2.13;;;;;;;14.42;92.94;101560.00;6014110;28;20037;-63
2022/07/11 04:57:08;;;;;;;6.20;2.00;;;;;;;14.69;91.21;101557.28;6017825;28;20034;-63
2022/07/11 05:00:04;;;;;;;5.70;2.65;;;;;;;14.46;91.30;101553.38;6022925;28;20029;-64
2022/07/11 05:03:00;;;;;;;6.55;2.28;;;;;;;14.47;91.48;101557.72;6029188;28;20413;-65
2022/07/11 05:05:55;;;;;;;5.87;2.67;;;;;;;14.45;91.36;101563.22;6027450;28;20034;-64
2022/07/11 05:08:51;;;;;;;5.72;3.00;;;;;;;14.51;91.75;101569.78;6027931;28;20018;-65
2022/07/11 05:11:46;;;;;;;8.18;2.25;;;;;;;15.23;91.16;101565.13;6009193;28;20046;-64
2022/07/11 05:14:41;;;;;;;7.03;2.27;;;;;;;16.03;88.18;101559.44;6016579;28;20049;-63
2022/07/11 05:17:37;;;;;;;3.50;1.80;;;;;;;17.08;81.60;101548.16;6027849;28;20348;-64
2022/07/11 05:20:32;;;;;;;6.27;2.10;;;;;;;17.47;78.64;101564.41;6026665;28;20038;-63
2022/07/11 05:23:27;;;;;;;3.60;1.80;;;;;;;17.59;75.90;101558.53;6023491;28;20031;-64
2022/07/11 05:26:23;;;;;;;4.60;2.20;;;;;;;17.88;73.60;101557.97;6014847;28;20042;-65
2022/07/11 05:29:18;;;;;;;5.73;1.87;;;;;;;17.66;74.05;101559.53;6027624;28;20053;-64
2022/07/11 05:32:13;;;;;;;6.20;1.80;;;;;;;17.70;74.93;101565.38;6026226;28;20172;-64
2022/07/11 05:35:09;;;;;;;5.30;1.63;;;;;;;17.12;75.72;101560.25;6016475;28;20047;-65
2022/07/11 05:38:04;;;;;;;4.47;1.73;;;;;;;17.30;77.20;101568.94;6008771;28;20792;-64
2022/07/11 05:41:00;;;;;;;6.57;1.60;;;;;;;17.77;74.75;101572.56;6019594;28;20045;-64
2022/07/11 05:43:55;;;;;;;6.70;1.90;;;;;;;17.42;76.15;101564.06;6027392;28;20066;-64
2022/07/11 05:46:50;;;;;;;7.07;2.30;;;;;;;17.80;74.79;101574.91;6027304;28;20049;-64
2022/07/11 05:49:45;;;;;;;4.17;2.27;;;;;;;16.92;76.47;101580.31;6027427;28;20116;-63
2022/07/11 05:52:41;;;;;;;3.30;1.90;;;;;;;16.76;77.88;101577.63;6026313;28;20026;-64
2022/07/11 05:55:37;;;;;;;4.77;2.10;;;;;;;16.82;77.64;101568.94;6026967;28;20026;-64
2022/07/11 05:58:32;;;;;;;5.88;1.90;;;;;;;16.98;76.72;101588.53;6027005;28;20030;-64
2022/07/11 06:01:27;;;;;;;3.60;1.87;;;;;;;16.36;79.13;101573.78;6026570;28;20042;-63
2022/07/11 06:04:23;;;;;;;3.75;1.73;;;;;;;16.24;79.04;101585.81;6026890;28;20438;-64
2022/07/11 06:10:33;;;;;;;4.00;1.63;;;;;;;15.68;79.88;101577.50;6026188;28;20121;-63
2022/07/11 06:13:29;;;;;;;4.57;2.30;;;;;;;15.57;81.50;101583.09;6026781;28;20038;-64
2022/07/11 06:16:25;;;;;;;5.03;2.38;;;;;;;15.39;81.46;101586.63;6025887;28;20478;-63
2022/07/11 06:19:20;;;;;;;6.77;2.40;;;;;;;15.23;82.59;101591.00;6020879;28;20039;-65
2022/07/11 06:22:15;;;;;;;5.07;2.20;;;;;;;15.19;84.28;101601.13;6024822;28;20022;-64
2022/07/11 06:25:11;;;;;;;5.20;2.00;;;;;;;15.37;83.91;101601.97;6023796;28;20041;-64
2022/07/11 06:28:07;;;;;;;5.55;2.40;;;;;;;15.60;84.07;101590.81;6014259;28;20038;-64
2022/07/11 06:31:02;;;;;;;4.13;2.30;;;;;;;15.95;81.44;101583.47;6016536;28;20034;-64
2022/07/11 06:33:57;;;;;;;4.40;2.30;;;;;;;16.31;78.70;101586.81;6025699;28;20061;-63
2022/07/11 06:36:52;;;;;;;5.80;2.43;;;;;;;16.57;78.59;101590.31;6026525;28;20057;-65
2022/07/11 06:39:48;;;;;;;5.50;2.80;;;;;;;16.37;78.57;101593.38;6025703;28;20287;-63
2022/07/11 06:42:44;;;;;;;6.38;2.38;;;;;;;16.65;76.99;101589.47;6024847;28;20026;-64
2022/07/11 06:45:40;;;;;;;7.03;2.63;;;;;;;16.72;77.17;101589.66;6024546;28;20038;-64
2022/07/11 06:48:35;;;;;;;5.10;2.70;;;;;;;16.72;76.13;101586.97;6026159;28;20144;-64
2022/07/11 06:51:30;;;;;;;5.13;2.27;;;;;;;16.44;76.33;101592.56;6024889;28;20042;-63
2022/07/11 06:54:26;;;;;;;3.50;2.00;;;;;;;16.74;75.64;101585.81;6017532;28;20027;-64
2022/07/11 06:57:21;;;;;;;4.00;1.80;;;;;;;17.10;72.29;101586.34;6019215;28;20272;-63
2022/07/11 07:00:17;;;;;;;5.07;2.00;;;;;;;17.05;73.11;101586.03;6025299;28;20386;-64
2022/07/11 07:03:12;;;;;;;6.10;2.28;;;;;;;17.54;73.37;101587.72;6024651;28;20034;-65
2022/07/11 07:06:08;;;;;;;5.90;1.97;;;;;;;17.68;71.07;101591.56;6022299;28;20453;-65
2022/07/11 07:09:03;;;;;;;4.57;1.83;;;;;;;17.85;70.88;101595.88;6020995;28;20066;-64
2022/07/11 07:11:58;;;;;;;3.80;1.93;;;;;;;17.63;70.83;101591.22;6023562;28;20045;-65
2022/07/11 07:14:54;;;;;;;3.67;1.80;;;;;;;17.76;71.71;101591.53;6030288;28;20034;-63
2022/07/11 07:17:49;;;;;;;5.30;2.30;;;;;;;18.04;70.67;101594.66;6029872;28;20504;-64
2022/07/11 07:20:44;;;;;;;3.15;1.92;;;;;;;17.84;70.99;101595.03;6030131;28;20640;-63
2022/07/11 07:23:40;;;;;;;2.87;1.63;;;;;;;17.50;71.73;101589.00;6019652;28;20049;-63
2022/07/11 07:26:35;;;;;;;4.63;1.80;;;;;;;17.23;70.21;101590.22;6028699;28;20034;-66
2022/07/11 07:29:31;;;;;;;3.47;1.70;;;;;;;17.13;71.38;101592.22;6029846;28;20290;-64
2022/07/11 07:32:26;;;;;;;4.38;1.75;;;;;;;17.46;71.53;101590.38;6028609;28;20061;-63
2022/07/11 07:35:21;;;;;;;2.77;1.70;;;;;;;18.08;69.32;101588.75;6027646;28;20111;-64
2022/07/11 07:38:16;;;;;;;4.50;2.07;;;;;;;17.71;69.48;101593.91;6029555;28;20293;-64
2022/07/11 07:41:15;;;;;;;3.93;1.40;;;;;;;17.68;70.37;101595.06;6027771;28;20277;-63
2022/07/11 07:44:11;;;;;;;4.13;1.77;;;;;;;17.64;70.99;101604.47;6016624;28;20055;-64
2022/07/11 07:47:06;;;;;;;3.07;1.60;;;;;;;18.14;70.04;101603.34;6028508;28;20128;-63
2022/07/11 07:50:02;;;;;;;2.80;1.60;;;;;;;18.58;65.82;101583.03;6029077;28;20463;-64
2022/07/11 07:52:57;;;;;;;2.00;1.40;;;;;;;19.60;62.51;101596.88;6027577;28;20045;-65
2022/07/11 07:55:52;;;;;;;5.33;1.47;;;;;;;19.90;62.38;101610.34;6029815;28;20034;-63
2022/07/11 07:58:48;;;;;;;5.67;1.60;;;;;;;19.73;62.65;101617.75;6028464;28;20105;-63
2022/07/11 08:01:45;;;;;;;2.92;1.42;;;;;;;18.98;62.93;101620.41;6026091;28;20497;-65
2022/07/11 08:04:40;;;;;;;2.55;1.50;;;;;;;18.44;64.52;101616.81;6019837;28;20406;-63
2022/07/11 08:07:36;;;;;;;2.92;1.30;;;;;;;18.25;65.38;101606.50;6028062;28;20073;-64
2022/07/11 08:10:31;;;;;;;2.47;1.40;;;;;;;17.82;69.70;101615.84;6028012;28;20038;-65
2022/07/11 08:13:27;;;;;;;7.17;2.17;;;;;;;17.26;75.72;101629.25;6030150;28;20497;-64
2022/07/11 08:16:22;;;;;;;8.50;2.60;;;;;;;16.74;77.49;101635.88;6023022;28;20772;-64
2022/07/11 08:19:18;;;;;;;5.93;2.60;;;;;;;16.61;79.08;101636.31;6029008;28;20030;-63
2022/07/11 08:22:13;;;;;;;4.97;2.60;;;;;;;16.86;79.85;101632.72;6022805;28;20058;-63
2022/07/11 08:25:08;;;;;;;4.13;2.15;;;;;;;17.27;78.48;101630.94;6029202;28;20034;-64
2022/07/11 08:28:04;;;;;;;5.23;2.17;;;;;;;17.55;77.71;101624.28;6026629;28;20046;-63
2022/07/11 08:30:59;;;;;;;5.20;1.80;;;;;;;17.78;74.74;101633.28;6028470;28;20042;-63
2022/07/11 08:33:57;;;;;;;3.07;1.00;;;;;;;17.82;71.18;101634.63;6028427;28;20399;-63
2022/07/11 08:36:52;;;;;;;2.22;1.40;;;;;;;18.32;69.58;101622.72;6028126;28;20030;-64
2022/07/11 08:39:47;;;;;;;3.30;1.40;;;;;;;18.45;67.65;101631.91;6028315;28;20478;-65
2022/07/11 08:42:44;;;;;;;3.73;1.23;;;;;;;19.55;65.83;101622.66;6028390;28;20500;-64
2022/07/11 08:45:39;;;;;;;4.82;1.60;;;;;;;20.31;62.76;101616.97;6021369;28;20125;-65
2022/07/11 08:48:34;;;;;;;1.43;1.00;;;;;;;21.14;59.63;101614.69;6028550;28;20046;-65
2022/07/11 08:51:31;;;;;;;1.73;1.05;;;;;;;20.60;59.36;101616.94;6026119;28;20025;-64
2022/07/11 08:54:26;;;;;;;1.40;0.90;;;;;;;20.16;59.28;101627.72;6027060;28;20070;-63
2022/07/11 08:57:21;;;;;;;1.63;1.10;;;;;;;19.32;61.25;101625.34;6027908;28;20030;-64
2022/07/11 09:00:16;;;;;;;2.50;1.00;;;;;;;19.07;62.30;101620.34;6027602;28;20268;-64
2022/07/11 09:03:15;;;;;;;1.33;1.23;;;;;;;19.27;64.03;101624.22;6027907;28;20030;-63
2022/07/11 09:06:11;;;;;;;2.00;1.23;;;;;;;19.95;63.48;101622.25;6018997;28;20277;-63
2022/07/11 09:09:07;;;;;;;1.48;1.00;;;;;;;20.29;60.04;101608.25;6027798;28;20026;-63
2022/07/11 09:12:10;;;;;;;2.57;1.10;;;;;;;20.27;59.98;101609.47;6027734;28;20038;-65
2022/07/11 09:15:05;;;;;;;1.55;0.90;;;;;;;19.73;60.91;101615.06;6021415;28;20273;-65
2022/07/11 09:18:01;;;;;;;3.35;1.02;;;;;;;19.89;62.49;101624.88;6027419;28;20041;-63
2022/07/11 09:27:49;;;;;;;4.13;1.10;;;;;;;19.23;64.22;101622.91;6016151;28;20478;-66
2022/07/11 09:30:44;;;;;;;1.85;1.00;;;;;;;19.43;63.81;101608.78;6016583;28;20066;-63
2022/07/11 09:33:57;;;;;;;1.47;0.90;;;;;;;18.83;65.84;101611.41;6025979;28;20048;-65
2022/07/11 09:36:54;;;;;;;3.78;1.10;;;;;;;18.48;66.92;101619.19;6026932;28;20038;-63
2022/07/11 09:39:50;;;;;;;2.67;1.83;;;;;;;18.10;68.29;101616.25;6026809;28;20043;-65
2022/07/11 09:42:50;;;;;;;1.85;1.00;;;;;;;18.77;66.40;101609.44;6025830;28;20046;-63
2022/07/11 09:45:45;;;;;;;1.90;1.15;;;;;;;18.95;64.27;101607.31;6025322;28;20105;-65
2022/07/11 09:48:44;;;;;;;1.67;1.00;;;;;;;19.18;65.35;101617.22;6025922;28;20038;-63
2022/07/11 09:51:40;;;;;;;3.50;1.20;;;;;;;19.91;63.23;101609.34;6025371;28;20513;-63
2022/07/11 09:54:56;;;;;;;2.28;1.02;;;;;;;20.93;59.94;101594.88;6022462;28;20636;-63
2022/07/11 09:57:51;;;;;;;2.60;1.00;;;;;;;21.14;59.76;101608.44;6026454;28;20042;-63
2022/07/11 10:00:46;;;;;;;2.60;1.10;;;;;;;20.29;60.60;101618.19;6025501;28;20402;-64
2022/07/11 10:03:42;;;;;;;2.17;0.77;;;;;;;20.12;61.71;101617.53;6027110;28;20026;-63
2022/07/11 10:06:38;;;;;;;4.00;1.10;;;;;;;19.59;62.74;101624.78;6018636;28;20273;-66
2022/07/11 10:09:35;;;;;;;0.85;0.65;;;;;;;19.26;64.60;101630.63;6026179;28;20030;-65
2022/07/11 10:12:32;;;;;;;1.40;0.70;;;;;;;18.87;65.81;101636.09;6025824;28;20042;-63
2022/07/11 10:15:30;;;;;;;2.22;1.00;;;;;;;18.57;67.08;101627.00;6025648;28;20038;-64
2022/07/11 10:18:32;;;;;;;3.15;1.08;;;;;;;18.87;67.67;101636.94;6026729;28;20045;-63
2022/07/11 10:21:33;;;;;;;2.10;0.85;;;;;;;19.49;65.40;101624.22;6023313;28;20045;-63
2022/07/11 10:24:52;;;;;;;2.72;0.88;;;;;;;20.13;63.83;101620.03;6031507;28;20027;-62
2022/07/11 10:28:09;;;;;;;3.30;1.65;;;;;;;20.29;62.45;101596.66;6023616;28;20058;-64
2022/07/11 10:31:17;;;;;;;2.45;0.90;;;;;;;20.78;60.85;101633.56;6022388;28;20537;-65
2022/07/11 10:34:18;;;;;;;0.68;0.57;;;;;;;20.81;61.10;101616.16;6016092;28;20604;-63
2022/07/11 10:37:13;;;;;;;0.50;0.50;;;;;;;20.40;59.69;101625.81;6026494;28;20033;-63
2022/07/11 10:40:09;;;;;;;1.67;0.75;;;;;;;20.34;61.52;101626.56;6024440;28;20465;-65
2022/07/11 10:43:04;;;;;;;1.95;0.77;;;;;;;20.96;61.47;101630.41;6025689;28;20263;-64
2022/07/11 10:46:04;;;;;;;1.77;0.80;;;;;;;20.66;60.39;101636.91;6025124;28;20049;-63
2022/07/11 10:49:15;;;;;;;1.98;0.80;;;;;;;21.34;59.58;101620.22;6023105;28;20033;-63
2022/07/11 10:52:12;;;;;;;1.40;0.60;;;;;;;21.66;58.47;101618.84;6024954;28;20104;-63
2022/07/11 10:55:28;;;;;;;1.58;0.75;;;;;;;21.27;59.09;101624.75;6024427;28;20049;-64
2022/07/11 10:58:31;;;;;;;2.15;0.80;;;;;;;21.46;59.79;101617.84;6024726;28;20064;-64
2022/07/11 11:01:27;;;;;;;2.15;0.80;;;;;;;21.28;59.19;101621.84;6024855;28;20078;-64
2022/07/11 11:04:44;;;;;;;2.97;0.70;;;;;;;21.45;58.16;101617.00;6040381;28;20222;-65
2022/07/11 11:07:42;;;;;;;0.55;0.50;;;;;;;22.01;56.45;101604.38;6025647;28;20464;-64
2022/07/11 11:10:44;;;;;;;1.38;0.70;;;;;;;21.86;54.15;101614.41;6017120;28;20034;-64
2022/07/11 11:13:42;;;;;;;2.47;0.52;;;;;;;22.27;54.86;101611.78;6025853;28;20445;-64
2022/07/11 11:16:37;;;;;;;0.70;0.50;;;;;;;22.71;53.32;101614.91;6024745;28;20030;-64
2022/07/11 11:19:48;;;;;;;2.43;0.60;;;;;;;22.44;52.92;101616.66;6025679;28;20041;-63
2022/07/11 11:23:09;;;;;;;0.63;0.63;;;;;;;22.06;54.93;101622.69;6024594;28;20096;-65
2022/07/11 11:26:19;;;;;;;2.33;0.80;;;;;;;21.72;57.22;101623.44;6015825;28;20035;-64
2022/07/11 11:29:22;;;;;;;5.32;1.00;;;;;;;21.95;56.56;101621.38;6024077;28;20042;-65
2022/07/11 11:32:18;;;;;;;0.98;0.70;;;;;;;21.88;55.74;101617.78;6015692;28;20035;-64
2022/07/11 11:35:16;;;;;;;3.03;0.88;;;;;;;22.10;55.99;101621.25;6015388;28;20475;-65
2022/07/11 11:38:12;;;;;;;1.05;0.80;;;;;;;21.59;56.25;101610.69;6018889;28;20153;-64
2022/07/11 11:41:07;;;;;;;1.17;0.50;;;;;;;21.49;57.65;101601.28;6039119;28;20042;-65
2022/07/11 11:44:03;;;;;;;0.90;0.68;;;;;;;22.21;54.29;101612.56;6024264;28;20046;-63
2022/07/11 11:46:59;;;;;;;2.50;0.80;;;;;;;22.16;55.09;101607.78;6020896;28;20045;-65
2022/07/11 11:49:54;;;;;;;0.70;0.53;;;;;;;21.78;56.34;101614.56;6010499;28;20053;-65
2022/07/11 11:52:50;;;;;;;1.40;0.90;;;;;;;21.42;57.37;101608.47;6023561;28;20761;-66
2022/07/11 11:55:46;;;;;;;2.67;0.85;;;;;;;21.08;59.09;101604.66;6017256;28;20058;-63
2022/07/11 11:58:45;;;;;;;3.10;0.80;;;;;;;20.91;60.26;101611.28;6025741;28;20120;-64
2022/07/11 12:01:46;;;;;;;0.73;0.60;;;;;;;21.48;59.82;101596.88;6020747;28;20034;-64
2022/07/11 12:04:42;;;;;;;1.05;0.88;;;;;;;21.77;58.15;101602.09;6026191;28;20165;-65
2022/07/11 12:07:37;;;;;;;2.03;0.50;;;;;;;22.06;55.72;101598.38;6026353;28;20038;-65
2022/07/11 12:10:33;;;;;;;2.05;0.70;;;;;;;22.37;54.89;101604.97;6026267;28;20339;-64
2022/07/11 12:13:28;;;;;;;1.40;0.80;;;;;;;23.00;53.58;101587.50;6029077;28;20044;-66
2022/07/11 12:16:43;;;;;;;1.13;0.50;;;;;;;22.99;52.79;101587.72;6017765;28;20037;-63
2022/07/11 12:19:38;;;;;;;0.57;0.40;;;;;;;22.17;54.24;101598.66;6026861;28;20026;-64
2022/07/11 12:22:42;;;;;;;1.03;0.63;;;;;;;21.79;55.55;101602.75;6022773;28;20034;-64
2022/07/11 12:25:38;;;;;;;0.75;0.52;;;;;;;21.30;57.13;101598.22;6026401;28;20332;-65
2022/07/11 12:28:33;;;;;;;0.60;0.50;;;;;;;21.37;58.32;101598.25;6025657;28;20113;-65
2022/07/11 12:31:57;;;;;;;0.90;0.50;;;;;;;21.53;57.70;101613.31;6025379;28;20048;-64
2022/07/11 12:34:52;;;;;;;0.57;0.40;;;;;;;21.36;58.51;101610.91;6020621;28;20390;-63
2022/07/11 12:37:47;;;;;;;2.67;0.67;;;;;;;21.24;59.57;101603.53;6021753;28;20057;-65
2022/07/11 12:41:04;;;;;;;0.50;0.37;;;;;;;21.84;58.71;101602.97;6014624;28;20046;-64
2022/07/11 12:47:15;;;;;;;1.33;0.57;;;;;;;22.72;55.91;101600.34;6013733;28;20035;-65
2022/07/11 12:50:15;;;;;;;1.67;0.60;;;;;;;22.79;55.32;101611.19;6023627;28;20034;-64
2022/07/11 12:53:10;;;;;;;1.25;0.60;;;;;;;22.17;56.61;101587.84;6027190;28;20471;-63
2022/07/11 12:56:05;;;;;;;1.90;0.77;;;;;;;22.45;56.36;101591.28;6025942;28;20093;-63
2022/07/11 12:59:02;;;;;;;1.25;0.90;;;;;;;22.45;56.78;101596.69;6018333;28;20157;-64
2022/07/11 13:02:06;;;;;;;3.83;0.90;;;;;;;22.56;58.06;101589.84;6019224;28;20031;-64
2022/07/11 13:05:01;;;;;;;0.77;0.63;;;;;;;23.23;56.22;101597.13;6023598;28;20046;-65
2022/07/11 13:11:25;;;;;;;1.02;0.73;;;;;;;23.47;54.17;101605.50;6015686;28;20030;-65
2022/07/11 13:17:34;;;;;;;1.10;0.60;;;;;;;22.70;55.99;101601.56;6024958;28;20045;-65
2022/07/11 13:20:29;;;;;;;1.00;0.70;;;;;;;23.00;55.22;101597.50;6025807;28;20034;-66
2022/07/11 13:23:24;;;;;;;1.23;0.90;;;;;;;22.93;54.00;101593.94;6016528;28;20038;-64
2022/07/11 13:26:20;;;;;;;2.08;0.82;;;;;;;22.89;53.81;101598.09;6024833;28;20372;-65
2022/07/11 13:29:15;;;;;;;0.70;0.60;;;;;;;22.99;54.30;101590.44;6039085;28;20450;-64
2022/07/11 13:32:10;;;;;;;0.80;0.75;;;;;;;22.95;55.09;101592.72;6015923;28;20536;-65
2022/07/11 13:35:06;;;;;;;2.23;0.80;;;;;;;23.18;55.10;101597.75;6025510;28;20038;-66
2022/07/11 13:38:02;;;;;;;1.50;1.05;;;;;;;23.34;55.29;101596.50;6016646;28;20293;-64
2022/07/11 13:40:58;;;;;;;2.07;0.80;;;;;;;23.82;52.73;101588.97;6014253;28;20034;-65
2022/07/11 13:43:53;;;;;;;0.80;0.73;;;;;;;22.87;54.21;101600.16;6021154;28;20030;-64
2022/07/11 13:46:49;;;;;;;0.80;0.80;;;;;;;22.43;56.51;101595.22;6020602;28;20061;-64
2022/07/11 13:49:44;;;;;;;1.20;0.80;;;;;;;22.11;58.28;101595.91;6020671;28;20286;-64
2022/07/11 13:52:39;;;;;;;1.03;0.70;;;;;;;21.92;58.24;101597.47;6013713;28;20457;-64
2022/07/11 13:55:35;;;;;;;1.80;0.70;;;;;;;21.65;60.87;101611.78;6024638;28;20105;-65
2022/07/11 13:58:31;;;;;;;1.25;0.77;;;;;;;21.33;60.56;101611.28;6017279;28;20065;-63
2022/07/11 14:01:26;;;;;;;0.88;0.77;;;;;;;21.29;61.88;101606.50;6021698;28;20080;-64
2022/07/11 14:04:22;;;;;;;3.03;1.00;;;;;;;21.21;61.84;101610.16;6024194;28;20105;-67